Ora Direzione Vento Velocita' Vento Media Vento Raffica Max. Temperatura Wind Chill Pioggia Pressione
20:44:52.0307 °(NW)0.0 Kts0.0 Kts11.7 Kts20.7 °C25.98 °C0.0 mm1018.0 Hpa
20:24:34.0317 °(NW)4.42 Kts2.81 Kts11.7 Kts21.2 °C34.45 °C0.0 mm1016.4 Hpa
20:04:17.0297 °(WNW)0.0 Kts0.13 Kts11.7 Kts22.2 °C26.91 °C0.0 mm1016.8 Hpa
19:44:02.0305 °(NW)4.55 Kts3.55 Kts11.7 Kts23.7 °C39.0 °C0.0 mm1018.9 Hpa
19:24:51.0314 °(NW)3.77 Kts4.46 Kts11.7 Kts24.2 °C37.93 °C0.0 mm1017.2 Hpa
19:04:24.0296 °(WNW)4.29 Kts3.25 Kts11.7 Kts25.2 °C40.95 °C0.0 mm1018.1 Hpa
18:44:03.0289 °(WNW)3.12 Kts5.46 Kts11.7 Kts26.1 °C38.97 °C0.0 mm1018.5 Hpa
18:24:49.0289 °(WNW)4.42 Kts5.33 Kts11.7 Kts25.2 °C41.45 °C0.0 mm1016.4 Hpa
18:04:30.0290 °(WNW)2.47 Kts5.5 Kts11.7 Kts25.7 °C36.36 °C0.0 mm1016.8 Hpa
17:44:06.0359 °(N)5.07 Kts5.93 Kts11.7 Kts24.8 °C42.29 °C0.0 mm1017.6 Hpa
17:23:45.0346 °(NNW)7.02 Kts3.72 Kts11.7 Kts24.8 °C46.89 °C0.0 mm1018.0 Hpa
17:04:31.0293 °(WNW)5.98 Kts1.86 Kts11.7 Kts26.0 °C46.9 °C0.0 mm1018.4 Hpa
16:44:07.0247 °(WSW)2.99 Kts4.42 Kts11.7 Kts25.2 °C37.28 °C0.0 mm1018.9 Hpa
16:23:46.0284 °(WNW)2.86 Kts4.24 Kts10.14 Kts26.0 °C38.22 °C0.0 mm1018.9 Hpa
16:04:37.0278 °(W)3.9 Kts4.5 Kts10.01 Kts26.1 °C41.4 °C0.0 mm1018.5 Hpa
15:44:22.0252 °(WSW)4.94 Kts5.07 Kts10.01 Kts26.2 °C44.53 °C0.0 mm1017.6 Hpa
15:24:03.0258 °(WSW)7.67 Kts6.24 Kts10.01 Kts26.0 °C50.55 °C0.0 mm1016.4 Hpa
15:03:46.0242 °(WSW)6.76 Kts7.41 Kts10.01 Kts26.3 °C49.23 °C0.0 mm1018.9 Hpa
14:43:46.0253 °(WSW)6.76 Kts5.46 Kts10.01 Kts26.5 °C49.63 °C0.0 mm1018.4 Hpa
14:23:52.0250 °(WSW)5.72 Kts5.72 Kts10.01 Kts26.7 °C47.75 °C0.0 mm1016.8 Hpa